sensor_id;sensor_type;location;lat;lon;timestamp;pressure;altitude;pressure_sealevel;temperature;humidity
64292;BME280;50628;51.008;13.658;2023-04-26T00:03:58;99574.75;;;5.66;100.00
64292;BME280;50628;51.008;13.658;2023-04-26T00:09:02;99582.91;;;5.46;100.00
64292;BME280;50628;51.008;13.658;2023-04-26T00:14:04;99579.72;;;5.42;100.00
64292;BME280;50628;51.008;13.658;2023-04-26T00:19:06;99585.03;;;5.39;100.00
64292;BME280;50628;51.008;13.658;2023-04-26T00:24:11;99584.13;;;5.40;100.00
64292;BME280;50628;51.008;13.658;2023-04-26T00:29:13;99581.19;;;5.32;100.00
64292;BME280;50628;51.008;13.658;2023-04-26T00:34:15;99588.28;;;5.42;100.00
64292;BME280;50628;51.008;13.658;2023-04-26T00:39:18;99593.34;;;5.30;100.00
64292;BME280;50628;51.008;13.658;2023-04-26T00:44:21;99597.38;;;5.34;100.00
64292;BME280;50628;51.008;13.658;2023-04-26T00:49:23;99608.66;;;5.33;100.00
64292;BME280;50628;51.008;13.658;2023-04-26T00:54:27;99615.56;;;5.18;100.00
64292;BME280;50628;51.008;13.658;2023-04-26T00:59:29;99610.69;;;5.13;100.00
64292;BME280;50628;51.008;13.658;2023-04-26T01:04:32;99616.94;;;5.24;100.00
64292;BME280;50628;51.008;13.658;2023-04-26T01:09:35;99619.97;;;5.16;100.00
64292;BME280;50628;51.008;13.658;2023-04-26T01:14:38;99613.81;;;5.04;100.00
64292;BME280;50628;51.008;13.658;2023-04-26T01:19:46;99615.75;;;5.01;100.00
64292;BME280;50628;51.008;13.658;2023-04-26T01:24:50;99620.16;;;4.98;100.00
64292;BME280;50628;51.008;13.658;2023-04-26T01:29:53;99625.59;;;4.80;100.00
64292;BME280;50628;51.008;13.658;2023-04-26T01:34:55;99624.47;;;4.69;100.00
64292;BME280;50628;51.008;13.658;2023-04-26T01:39:58;99635.13;;;4.63;100.00
64292;BME280;50628;51.008;13.658;2023-04-26T01:45:00;99626.56;;;4.63;100.00
64292;BME280;50628;51.008;13.658;2023-04-26T01:50:22;99628.31;;;4.62;100.00
64292;BME280;50628;51.008;13.658;2023-04-26T01:55:25;99630.44;;;4.70;100.00
64292;BME280;50628;51.008;13.658;2023-04-26T02:00:27;99629.88;;;4.65;100.00
64292;BME280;50628;51.008;13.658;2023-04-26T02:05:29;99634.81;;;4.53;100.00
64292;BME280;50628;51.008;13.658;2023-04-26T02:10:32;99631.94;;;4.44;100.00
64292;BME280;50628;51.008;13.658;2023-04-26T02:15:34;99643.84;;;4.46;100.00
64292;BME280;50628;51.008;13.658;2023-04-26T02:20:36;99632.09;;;4.41;100.00
64292;BME280;50628;51.008;13.658;2023-04-26T02:25:40;99635.25;;;4.46;100.00
64292;BME280;50628;51.008;13.658;2023-04-26T02:30:42;99636.38;;;4.56;100.00
64292;BME280;50628;51.008;13.658;2023-04-26T02:35:44;99640.81;;;4.54;100.00
64292;BME280;50628;51.008;13.658;2023-04-26T02:40:48;99634.81;;;4.53;100.00
64292;BME280;50628;51.008;13.658;2023-04-26T02:45:53;99639.56;;;4.61;100.00
64292;BME280;50628;51.008;13.658;2023-04-26T02:50:55;99631.63;;;4.64;100.00
64292;BME280;50628;51.008;13.658;2023-04-26T02:55:59;99626.66;;;4.75;100.00
64292;BME280;50628;51.008;13.658;2023-04-26T03:01:02;99641.28;;;4.61;100.00
64292;BME280;50628;51.008;13.658;2023-04-26T03:06:05;99637.22;;;4.57;100.00
64292;BME280;50628;51.008;13.658;2023-04-26T03:11:08;99639.25;;;4.51;100.00
64292;BME280;50628;51.008;13.658;2023-04-26T03:16:11;99642.09;;;4.47;100.00
64292;BME280;50628;51.008;13.658;2023-04-26T03:21:13;99645.09;;;4.39;100.00
64292;BME280;50628;51.008;13.658;2023-04-26T03:26:17;99651.00;;;4.41;100.00
64292;BME280;50628;51.008;13.658;2023-04-26T03:31:19;99648.94;;;4.32;100.00
64292;BME280;50628;51.008;13.658;2023-04-26T03:36:22;99658.84;;;4.24;100.00
64292;BME280;50628;51.008;13.658;2023-04-26T03:41:26;99656.16;;;4.25;100.00
64292;BME280;50628;51.008;13.658;2023-04-26T03:46:29;99661.00;;;4.16;100.00
64292;BME280;50628;51.008;13.658;2023-04-26T03:51:31;99662.75;;;4.15;100.00
64292;BME280;50628;51.008;13.658;2023-04-26T03:56:34;99669.13;;;4.08;100.00
64292;BME280;50628;51.008;13.658;2023-04-26T04:01:37;99672.72;;;3.89;100.00
64292;BME280;50628;51.008;13.658;2023-04-26T04:06:39;99674.56;;;4.03;100.00
64292;BME280;50628;51.008;13.658;2023-04-26T04:11:43;99676.88;;;3.92;100.00
64292;BME280;50628;51.008;13.658;2023-04-26T04:16:45;99682.50;;;3.83;100.00
64292;BME280;50628;51.008;13.658;2023-04-26T04:21:47;99678.22;;;3.83;100.00
64292;BME280;50628;51.008;13.658;2023-04-26T04:26:50;99681.44;;;3.87;100.00
64292;BME280;50628;51.008;13.658;2023-04-26T04:31:52;99684.59;;;3.76;100.00
64292;BME280;50628;51.008;13.658;2023-04-26T04:36:54;99683.72;;;3.93;100.00
64292;BME280;50628;51.008;13.658;2023-04-26T04:41:58;99681.22;;;3.92;100.00
64292;BME280;50628;51.008;13.658;2023-04-26T04:47:00;99689.09;;;4.04;100.00
64292;BME280;50628;51.008;13.658;2023-04-26T04:52:04;99696.56;;;4.09;100.00
64292;BME280;50628;51.008;13.658;2023-04-26T04:57:09;99701.03;;;4.05;100.00
64292;BME280;50628;51.008;13.658;2023-04-26T05:02:11;99704.72;;;4.17;100.00
64292;BME280;50628;51.008;13.658;2023-04-26T05:07:13;99701.56;;;4.12;100.00
64292;BME280;50628;51.008;13.658;2023-04-26T05:12:19;99706.78;;;4.10;100.00
64292;BME280;50628;51.008;13.658;2023-04-26T05:17:21;99716.28;;;4.26;100.00
64292;BME280;50628;51.008;13.658;2023-04-26T05:22:25;99713.53;;;4.29;100.00
64292;BME280;50628;51.008;13.658;2023-04-26T05:27:29;99720.16;;;4.33;100.00
64292;BME280;50628;51.008;13.658;2023-04-26T05:32:53;99722.88;;;4.46;100.00
64292;BME280;50628;51.008;13.658;2023-04-26T05:38:25;99731.94;;;4.53;100.00
64292;BME280;50628;51.008;13.658;2023-04-26T05:43:29;99734.81;;;4.63;100.00
64292;BME280;50628;51.008;13.658;2023-04-26T05:48:31;99738.78;;;4.84;100.00
64292;BME280;50628;51.008;13.658;2023-04-26T05:53:33;99747.34;;;4.85;100.00
64292;BME280;50628;51.008;13.658;2023-04-26T05:58:37;99752.22;;;4.59;100.00
64292;BME280;50628;51.008;13.658;2023-04-26T06:03:39;99743.31;;;4.65;100.00
64292;BME280;50628;51.008;13.658;2023-04-26T06:08:41;99752.56;;;4.83;100.00
64292;BME280;50628;51.008;13.658;2023-04-26T06:13:46;99746.16;;;4.90;100.00
64292;BME280;50628;51.008;13.658;2023-04-26T06:18:48;99758.16;;;4.75;100.00
64292;BME280;50628;51.008;13.658;2023-04-26T06:23:50;99756.09;;;4.82;100.00
64292;BME280;50628;51.008;13.658;2023-04-26T06:28:55;99754.72;;;4.91;100.00
64292;BME280;50628;51.008;13.658;2023-04-26T06:33:57;99761.50;;;4.77;100.00
64292;BME280;50628;51.008;13.658;2023-04-26T06:38:59;99763.59;;;5.01;100.00
64292;BME280;50628;51.008;13.658;2023-04-26T06:44:02;99746.66;;;4.97;100.00
64292;BME280;50628;51.008;13.658;2023-04-26T06:49:05;99753.16;;;5.33;100.00
64292;BME280;50628;51.008;13.658;2023-04-26T06:54:07;99763.75;;;5.28;100.00
64292;BME280;50628;51.008;13.658;2023-04-26T06:59:10;99767.84;;;5.47;100.00
64292;BME280;50628;51.008;13.658;2023-04-26T07:04:12;99766.44;;;5.41;100.00
64292;BME280;50628;51.008;13.658;2023-04-26T07:09:16;99777.00;;;5.52;100.00
64292;BME280;50628;51.008;13.658;2023-04-26T07:14:19;99771.00;;;6.09;100.00
64292;BME280;50628;51.008;13.658;2023-04-26T07:19:21;99779.84;;;5.91;100.00
64292;BME280;50628;51.008;13.658;2023-04-26T07:24:23;99777.00;;;5.52;100.00
64292;BME280;50628;51.008;13.658;2023-04-26T07:29:26;99770.16;;;5.66;100.00
64292;BME280;50628;51.008;13.658;2023-04-26T07:34:28;99769.63;;;5.75;100.00
64292;BME280;50628;51.008;13.658;2023-04-26T07:39:31;99774.13;;;5.71;100.00
64292;BME280;50628;51.008;13.658;2023-04-26T07:44:34;99775.81;;;5.72;100.00
64292;BME280;50628;51.008;13.658;2023-04-26T07:49:36;99776.91;;;6.11;100.00
64292;BME280;50628;51.008;13.658;2023-04-26T07:54:37;99768.53;;;6.35;100.00
64292;BME280;50628;51.008;13.658;2023-04-26T07:59:41;99774.88;;;6.02;100.00
64292;BME280;50628;51.008;13.658;2023-04-26T08:04:46;99765.59;;;6.41;100.00
64292;BME280;50628;51.008;13.658;2023-04-26T08:09:49;99775.16;;;6.12;100.00
64292;BME280;50628;51.008;13.658;2023-04-26T08:14:52;99771.28;;;6.60;98.56
64292;BME280;50628;51.008;13.658;2023-04-26T08:19:54;99780.59;;;7.03;93.25
64292;BME280;50628;51.008;13.658;2023-04-26T08:24:56;99781.34;;;6.78;85.67
64292;BME280;50628;51.008;13.658;2023-04-26T08:29:59;99774.84;;;6.31;90.40
64292;BME280;50628;51.008;13.658;2023-04-26T08:35:01;99783.56;;;6.42;90.72
64292;BME280;50628;51.008;13.658;2023-04-26T08:40:03;99783.84;;;6.52;92.03
64292;BME280;50628;51.008;13.658;2023-04-26T08:45:09;99785.31;;;6.83;91.23
64292;BME280;50628;51.008;13.658;2023-04-26T08:50:13;99792.59;;;6.91;86.47
64292;BME280;50628;51.008;13.658;2023-04-26T08:55:16;99770.06;;;7.06;81.10
64292;BME280;50628;51.008;13.658;2023-04-26T09:00:20;99776.41;;;7.53;77.54
64292;BME280;50628;51.008;13.658;2023-04-26T09:05:22;99772.47;;;7.60;77.55
64292;BME280;50628;51.008;13.658;2023-04-26T09:10:26;99789.75;;;6.81;77.09
64292;BME280;50628;51.008;13.658;2023-04-26T09:15:29;99788.16;;;7.06;80.56
64292;BME280;50628;51.008;13.658;2023-04-26T09:20:31;99773.81;;;7.78;75.87
64292;BME280;50628;51.008;13.658;2023-04-26T09:25:34;99783.25;;;7.79;74.90
64292;BME280;50628;51.008;13.658;2023-04-26T09:30:38;99796.22;;;7.01;77.61
64292;BME280;50628;51.008;13.658;2023-04-26T09:35:42;99792.75;;;7.41;76.92
64292;BME280;50628;51.008;13.658;2023-04-26T09:40:45;99787.81;;;7.63;73.86
64292;BME280;50628;51.008;13.658;2023-04-26T09:45:49;99792.28;;;7.61;71.28
64292;BME280;50628;51.008;13.658;2023-04-26T09:50:53;99797.53;;;7.85;71.89
64292;BME280;50628;51.008;13.658;2023-04-26T09:55:56;99796.38;;;7.25;73.95
64292;BME280;50628;51.008;13.658;2023-04-26T10:01:00;99798.13;;;7.12;77.20
64292;BME280;50628;51.008;13.658;2023-04-26T10:06:04;99787.34;;;8.08;72.76
64292;BME280;50628;51.008;13.658;2023-04-26T10:11:06;99771.97;;;8.30;70.97
64292;BME280;50628;51.008;13.658;2023-04-26T10:16:11;99777.69;;;8.22;66.18
64292;BME280;50628;51.008;13.658;2023-04-26T10:21:15;99786.41;;;8.21;67.41
64292;BME280;50628;51.008;13.658;2023-04-26T10:26:45;99769.56;;;7.77;68.52
64292;BME280;50628;51.008;13.658;2023-04-26T10:32:08;99785.19;;;8.14;67.81
64292;BME280;50628;51.008;13.658;2023-04-26T10:37:12;99784.31;;;8.27;68.36
64292;BME280;50628;51.008;13.658;2023-04-26T10:42:18;99787.66;;;8.03;67.61
64292;BME280;50628;51.008;13.658;2023-04-26T10:47:26;99783.50;;;8.87;64.81
64292;BME280;50628;51.008;13.658;2023-04-26T10:52:28;99775.09;;;8.83;62.97
64292;BME280;50628;51.008;13.658;2023-04-26T10:57:49;99775.16;;;8.71;62.03
64292;BME280;50628;51.008;13.658;2023-04-26T11:02:55;99781.44;;;9.03;60.40
64292;BME280;50628;51.008;13.658;2023-04-26T11:08:03;99773.72;;;8.42;62.77
64292;BME280;50628;51.008;13.658;2023-04-26T11:13:05;99779.63;;;8.44;63.10
64292;BME280;50628;51.008;13.658;2023-04-26T11:18:08;99776.44;;;8.65;60.12
64292;BME280;50628;51.008;13.658;2023-04-26T11:23:10;99765.16;;;8.53;58.09
64292;BME280;50628;51.008;13.658;2023-04-26T11:28:12;99771.28;;;9.12;60.08
64292;BME280;50628;51.008;13.658;2023-04-26T11:33:20;99766.81;;;9.83;58.38
64292;BME280;50628;51.008;13.658;2023-04-26T11:38:23;99775.28;;;9.51;57.09
64292;BME280;50628;51.008;13.658;2023-04-26T11:43:29;99783.69;;;9.08;57.20
64292;BME280;50628;51.008;13.658;2023-04-26T11:48:34;99774.53;;;8.43;58.34
64292;BME280;50628;51.008;13.658;2023-04-26T11:53:37;99775.13;;;8.47;58.81
64292;BME280;50628;51.008;13.658;2023-04-26T11:58:39;99782.13;;;8.70;61.15
64292;BME280;50628;51.008;13.658;2023-04-26T12:03:49;99783.09;;;8.80;62.09
64292;BME280;50628;51.008;13.658;2023-04-26T12:08:51;99791.00;;;8.79;59.75
64292;BME280;50628;51.008;13.658;2023-04-26T12:13:53;99781.91;;;9.08;58.03
64292;BME280;50628;51.008;13.658;2023-04-26T12:18:56;99799.50;;;8.81;58.35
64292;BME280;50628;51.008;13.658;2023-04-26T12:23:58;99786.34;;;8.71;59.56
64292;BME280;50628;51.008;13.658;2023-04-26T12:29:01;99790.25;;;9.01;59.31
64292;BME280;50628;51.008;13.658;2023-04-26T12:34:04;99786.19;;;9.21;59.12
64292;BME280;50628;51.008;13.658;2023-04-26T12:39:06;99784.84;;;9.50;57.65
64292;BME280;50628;51.008;13.658;2023-04-26T12:44:09;99784.88;;;8.80;58.58
64292;BME280;50628;51.008;13.658;2023-04-26T12:49:12;99786.97;;;8.75;59.08
64292;BME280;50628;51.008;13.658;2023-04-26T12:54:14;99779.97;;;8.99;59.89
64292;BME280;50628;51.008;13.658;2023-04-26T12:59:16;99788.38;;;9.49;58.69
64292;BME280;50628;51.008;13.658;2023-04-26T13:04:21;99788.53;;;9.59;55.75
64292;BME280;50628;51.008;13.658;2023-04-26T13:09:23;99781.06;;;10.22;54.61
64292;BME280;50628;51.008;13.658;2023-04-26T13:14:25;99777.66;;;9.77;55.92
64292;BME280;50628;51.008;13.658;2023-04-26T13:19:29;99784.13;;;9.48;57.35
64292;BME280;50628;51.008;13.658;2023-04-26T13:24:30;99787.94;;;9.67;57.27
64292;BME280;50628;51.008;13.658;2023-04-26T13:29:32;99773.38;;;9.42;56.71
64292;BME280;50628;51.008;13.658;2023-04-26T13:34:36;99782.06;;;9.99;56.87
64292;BME280;50628;51.008;13.658;2023-04-26T13:39:39;99782.28;;;9.73;55.86
64292;BME280;50628;51.008;13.658;2023-04-26T13:44:41;99783.69;;;9.66;55.93
64292;BME280;50628;51.008;13.658;2023-04-26T13:49:44;99786.63;;;9.50;54.18
64292;BME280;50628;51.008;13.658;2023-04-26T13:54:46;99783.91;;;9.40;53.81
64292;BME280;50628;51.008;13.658;2023-04-26T13:59:48;99783.09;;;9.73;53.12
64292;BME280;50628;51.008;13.658;2023-04-26T14:04:51;99785.00;;;9.71;53.34
64292;BME280;50628;51.008;13.658;2023-04-26T14:09:53;99790.91;;;9.73;53.80
64292;BME280;50628;51.008;13.658;2023-04-26T14:14:55;99793.50;;;9.96;53.84
64292;BME280;50628;51.008;13.658;2023-04-26T14:19:58;99802.22;;;9.61;54.60
64292;BME280;50628;51.008;13.658;2023-04-26T14:25:00;99802.28;;;9.26;55.99
64292;BME280;50628;51.008;13.658;2023-04-26T14:30:03;99793.63;;;9.83;55.51
64292;BME280;50628;51.008;13.658;2023-04-26T14:35:07;99798.56;;;9.52;54.80
64292;BME280;50628;51.008;13.658;2023-04-26T14:40:10;99806.88;;;9.22;55.56
64292;BME280;50628;51.008;13.658;2023-04-26T14:45:12;99802.84;;;9.29;56.40
64292;BME280;50628;51.008;13.658;2023-04-26T14:50:15;99801.53;;;9.13;55.98
64292;BME280;50628;51.008;13.658;2023-04-26T14:55:19;99800.50;;;8.91;58.22
64292;BME280;50628;51.008;13.658;2023-04-26T15:00:22;99806.97;;;8.85;57.16
64292;BME280;50628;51.008;13.658;2023-04-26T15:05:26;99811.13;;;8.99;57.18
64292;BME280;50628;51.008;13.658;2023-04-26T15:10:28;99806.78;;;8.76;57.94
64292;BME280;50628;51.008;13.658;2023-04-26T15:15:30;99804.63;;;8.94;58.39
64292;BME280;50628;51.008;13.658;2023-04-26T15:20:34;99806.50;;;8.92;58.94
64292;BME280;50628;51.008;13.658;2023-04-26T15:25:38;99807.06;;;9.19;59.32
64292;BME280;50628;51.008;13.658;2023-04-26T15:30:41;99801.53;;;8.88;59.04
64292;BME280;50628;51.008;13.658;2023-04-26T15:35:44;99800.19;;;9.07;58.97
64292;BME280;50628;51.008;13.658;2023-04-26T15:40:46;99801.22;;;9.28;58.37
64292;BME280;50628;51.008;13.658;2023-04-26T15:45:47;99803.28;;;9.12;59.51
64292;BME280;50628;51.008;13.658;2023-04-26T15:50:51;99817.44;;;9.08;58.73
64292;BME280;50628;51.008;13.658;2023-04-26T15:55:56;99816.13;;;9.02;58.06
64292;BME280;50628;51.008;13.658;2023-04-26T16:00:57;99815.31;;;8.78;59.44
64292;BME280;50628;51.008;13.658;2023-04-26T16:06:01;99812.31;;;8.95;59.74
64292;BME280;50628;51.008;13.658;2023-04-26T16:11:03;99817.41;;;8.73;60.76
64292;BME280;50628;51.008;13.658;2023-04-26T16:16:06;99808.66;;;8.98;60.64
64292;BME280;50628;51.008;13.658;2023-04-26T16:21:11;99811.63;;;9.04;58.94
64292;BME280;50628;51.008;13.658;2023-04-26T16:26:13;99811.81;;;8.66;59.13
64292;BME280;50628;51.008;13.658;2023-04-26T16:31:14;99815.44;;;8.39;58.94
64292;BME280;50628;51.008;13.658;2023-04-26T16:36:18;99805.81;;;8.90;58.67
64292;BME280;50628;51.008;13.658;2023-04-26T16:41:20;99802.19;;;8.79;58.18
64292;BME280;50628;51.008;13.658;2023-04-26T16:46:22;99807.78;;;9.10;58.30
64292;BME280;50628;51.008;13.658;2023-04-26T16:51:25;99811.94;;;8.64;58.86
64292;BME280;50628;51.008;13.658;2023-04-26T16:56:28;99815.44;;;8.63;59.63
64292;BME280;50628;51.008;13.658;2023-04-26T17:01:30;99817.94;;;8.65;60.41
64292;BME280;50628;51.008;13.658;2023-04-26T17:06:33;99819.53;;;8.79;60.34
64292;BME280;50628;51.008;13.658;2023-04-26T17:11:36;99827.28;;;8.68;60.75
64292;BME280;50628;51.008;13.658;2023-04-26T17:16:41;99832.50;;;8.55;61.63
64292;BME280;50628;51.008;13.658;2023-04-26T17:21:44;99828.69;;;8.48;61.96
64292;BME280;50628;51.008;13.658;2023-04-26T17:26:46;99836.56;;;8.46;62.19
64292;BME280;50628;51.008;13.658;2023-04-26T17:31:48;99837.25;;;8.61;62.60
64292;BME280;50628;51.008;13.658;2023-04-26T17:36:51;99846.63;;;8.38;63.38
64292;BME280;50628;51.008;13.658;2023-04-26T17:41:53;99838.94;;;8.36;63.32
64292;BME280;50628;51.008;13.658;2023-04-26T17:46:55;99845.72;;;8.13;63.89
64292;BME280;50628;51.008;13.658;2023-04-26T17:51:58;99846.53;;;8.14;65.02
64292;BME280;50628;51.008;13.658;2023-04-26T17:57:00;99850.31;;;7.97;64.77
64292;BME280;50628;51.008;13.658;2023-04-26T18:02:02;99859.00;;;8.09;64.92
64292;BME280;50628;51.008;13.658;2023-04-26T18:07:05;99855.50;;;7.97;66.17
64292;BME280;50628;51.008;13.658;2023-04-26T18:12:07;99852.69;;;7.87;66.84
64292;BME280;50628;51.008;13.658;2023-04-26T18:17:10;99865.44;;;7.90;66.88
64292;BME280;50628;51.008;13.658;2023-04-26T18:22:13;99865.94;;;7.95;67.78
64292;BME280;50628;51.008;13.658;2023-04-26T18:27:16;99864.41;;;8.06;68.77
64292;BME280;50628;51.008;13.658;2023-04-26T18:32:18;99867.63;;;7.96;69.39
64292;BME280;50628;51.008;13.658;2023-04-26T18:37:21;99871.25;;;7.94;69.40
64292;BME280;50628;51.008;13.658;2023-04-26T18:42:23;99878.50;;;7.89;70.02
64292;BME280;50628;51.008;13.658;2023-04-26T18:47:25;99886.16;;;7.90;70.62
64292;BME280;50628;51.008;13.658;2023-04-26T18:52:28;99878.06;;;7.69;71.85
64292;BME280;50628;51.008;13.658;2023-04-26T18:57:30;99886.59;;;7.84;73.48
64292;BME280;50628;51.008;13.658;2023-04-26T19:02:32;99888.03;;;7.75;74.02
64292;BME280;50628;51.008;13.658;2023-04-26T19:07:37;99893.63;;;7.69;74.79
64292;BME280;50628;51.008;13.658;2023-04-26T19:12:39;99904.38;;;7.76;74.09
64292;BME280;50628;51.008;13.658;2023-04-26T19:17:41;99901.41;;;7.69;74.05
64292;BME280;50628;51.008;13.658;2023-04-26T19:22:45;99901.41;;;7.82;75.50
64292;BME280;50628;51.008;13.658;2023-04-26T19:27:47;99898.91;;;7.80;77.47
64292;BME280;50628;51.008;13.658;2023-04-26T19:32:48;99912.50;;;7.71;79.07
64292;BME280;50628;51.008;13.658;2023-04-26T19:37:52;99903.53;;;7.50;81.02
64292;BME280;50628;51.008;13.658;2023-04-26T19:42:53;99909.13;;;7.44;82.70
64292;BME280;50628;51.008;13.658;2023-04-26T19:47:55;99911.38;;;7.48;81.57
64292;BME280;50628;51.008;13.658;2023-04-26T19:52:58;99911.53;;;7.59;79.95
64292;BME280;50628;51.008;13.658;2023-04-26T19:58:00;99914.72;;;7.50;82.66
64292;BME280;50628;51.008;13.658;2023-04-26T20:03:02;99909.13;;;7.44;83.62
64292;BME280;50628;51.008;13.658;2023-04-26T20:08:06;99920.06;;;7.34;82.49
64292;BME280;50628;51.008;13.658;2023-04-26T20:13:07;99926.34;;;7.30;82.21
64292;BME280;50628;51.008;13.658;2023-04-26T20:18:09;99916.88;;;7.17;85.11
64292;BME280;50628;51.008;13.658;2023-04-26T20:23:12;99925.69;;;7.14;84.50
64292;BME280;50628;51.008;13.658;2023-04-26T20:28:14;99919.72;;;7.26;82.98
64292;BME280;50628;51.008;13.658;2023-04-26T20:33:16;99916.88;;;7.17;82.75
64292;BME280;50628;51.008;13.658;2023-04-26T20:38:19;99912.88;;;6.98;84.04
64292;BME280;50628;51.008;13.658;2023-04-26T20:43:21;99911.16;;;6.84;85.82
64292;BME280;50628;51.008;13.658;2023-04-26T20:48:24;99900.19;;;6.66;96.98
64292;BME280;50628;51.008;13.658;2023-04-26T20:53:27;99895.59;;;6.43;100.00
64292;BME280;50628;51.008;13.658;2023-04-26T20:58:29;99905.84;;;6.59;100.00
64292;BME280;50628;51.008;13.658;2023-04-26T21:03:31;99911.09;;;6.14;100.00
64292;BME280;50628;51.008;13.658;2023-04-26T21:08:35;99916.81;;;6.05;100.00
64292;BME280;50628;51.008;13.658;2023-04-26T21:13:36;99918.88;;;5.84;100.00
64292;BME280;50628;51.008;13.658;2023-04-26T21:18:38;99918.03;;;5.83;100.00
64292;BME280;50628;51.008;13.658;2023-04-26T21:23:41;99930.47;;;5.77;100.00
64292;BME280;50628;51.008;13.658;2023-04-26T21:28:43;99924.13;;;5.82;100.00
64292;BME280;50628;51.008;13.658;2023-04-26T21:33:45;99934.94;;;5.59;100.00
64292;BME280;50628;51.008;13.658;2023-04-26T21:38:49;99938.81;;;5.36;100.00
64292;BME280;50628;51.008;13.658;2023-04-26T21:43:50;99940.50;;;5.37;100.00
64292;BME280;50628;51.008;13.658;2023-04-26T21:48:52;99940.09;;;5.59;100.00
64292;BME280;50628;51.008;13.658;2023-04-26T21:53:56;99942.56;;;5.30;100.00
64292;BME280;50628;51.008;13.658;2023-04-26T21:58:57;99954.75;;;5.12;100.00
64292;BME280;50628;51.008;13.658;2023-04-26T22:03:59;99959.81;;;5.30;100.00
64292;BME280;50628;51.008;13.658;2023-04-26T22:09:02;99957.75;;;5.05;100.00
64292;BME280;50628;51.008;13.658;2023-04-26T22:14:08;99960.41;;;4.87;100.00
64292;BME280;50628;51.008;13.658;2023-04-26T22:19:10;99965.63;;;4.86;100.00
64292;BME280;50628;51.008;13.658;2023-04-26T22:24:13;99957.66;;;4.90;100.00
64292;BME280;50628;51.008;13.658;2023-04-26T22:29:15;99970.53;;;4.90;100.00
64292;BME280;50628;51.008;13.658;2023-04-26T22:34:17;99973.28;;;4.71;100.00
64292;BME280;50628;51.008;13.658;2023-04-26T22:39:20;99977.25;;;4.61;100.00
64292;BME280;50628;51.008;13.658;2023-04-26T22:44:22;99983.78;;;4.51;100.00
64292;BME280;50628;51.008;13.658;2023-04-26T22:49:24;99993.28;;;4.16;100.00
64292;BME280;50628;51.008;13.658;2023-04-26T22:54:28;99995.44;;;4.07;100.00
64292;BME280;50628;51.008;13.658;2023-04-26T22:59:30;99995.66;;;4.03;100.00
64292;BME280;50628;51.008;13.658;2023-04-26T23:04:33;99994.28;;;4.13;100.00
64292;BME280;50628;51.008;13.658;2023-04-26T23:09:36;100001.28;;;3.94;100.00
64292;BME280;50628;51.008;13.658;2023-04-26T23:14:38;99996.63;;;3.83;100.00
64292;BME280;50628;51.008;13.658;2023-04-26T23:19:40;99999.28;;;3.81;100.00
64292;BME280;50628;51.008;13.658;2023-04-26T23:24:43;100000.50;;;3.74;100.00
64292;BME280;50628;51.008;13.658;2023-04-26T23:29:46;99996.56;;;3.84;100.00
64292;BME280;50628;51.008;13.658;2023-04-26T23:34:50;99994.94;;;3.64;100.00
64292;BME280;50628;51.008;13.658;2023-04-26T23:39:53;100006.91;;;3.29;100.00
64292;BME280;50628;51.008;13.658;2023-04-26T23:44:55;100011.69;;;3.56;100.00
64292;BME280;50628;51.008;13.658;2023-04-26T23:49:57;100003.03;;;3.57;100.00
64292;BME280;50628;51.008;13.658;2023-04-26T23:55:00;99999.03;;;3.51;100.00
